Time;durP1;ratioP1;P1;durP2;ratioP2;P2;SDS_P1;SDS_P2;PMS_P1;PMS_P2;Temp;Humidity;BMP_temperature;BMP_pressure;BME280_temperature;BME280_humidity;BME280_pressure;Samples;Min_cycle;Max_cycle;Signal;HPM_P1;HPM_P2
2022/03/31 00:02:21;;;;;;;29.75;13.77;;;;;;;;;;5053173;28;20537;-87
2022/03/31 00:04:46;;;;;;;29.83;13.50;;;;;;;;;;5054502;28;20021;-87
2022/03/31 00:07:11;;;;;;;29.73;13.68;;;;;;;;;;5055237;28;20029;-87
2022/03/31 00:09:36;;;;;;;27.67;13.20;;;;;;;;;;5054526;28;20098;-87
2022/03/31 00:12:02;;;;;;;30.40;14.88;;;;;;;;;;5053440;28;20048;-87
2022/03/31 00:14:27;;;;;;;29.08;13.85;;;;;;;;;;5052645;28;20457;-87
2022/03/31 00:16:53;;;;;;;27.20;12.90;;;;;;;;;;5053352;28;20143;-87
2022/03/31 00:19:18;;;;;;;28.20;13.50;;;;;;;;;;5053115;28;20470;-87
2022/03/31 00:21:43;;;;;;;27.08;12.88;;;;;;;;;;5054456;28;20028;-88
2022/03/31 00:24:08;;;;;;;26.55;12.38;;;;;;;;;;5053283;28;20392;-87
2022/03/31 00:26:34;;;;;;;27.23;12.60;;;;;;;;;;5045272;28;20495;-87
2022/03/31 00:28:59;;;;;;;30.25;13.48;;;;;;;;;;5046773;28;20018;-87
2022/03/31 00:31:24;;;;;;;26.77;13.23;;;;;;;;;;5033139;28;20025;-87
2022/03/31 00:33:49;;;;;;;28.05;13.82;;;;;;;;;;5034116;28;20072;-87
2022/03/31 00:36:14;;;;;;;23.88;12.00;;;;;;;;;;5032985;28;20393;-87
2022/03/31 00:39:28;;;;;;;25.25;12.27;;;;;;;;;;5033028;28;20528;-87
2022/03/31 00:41:27;;;;;;;22.27;10.90;;;;;;;;;;5034260;28;20017;-87
2022/03/31 00:43:54;;;;;;;23.92;11.68;;;;;;;;;;5032967;28;20033;-87
2022/03/31 00:46:22;;;;;;;25.35;12.32;;;;;;;;;;5033032;28;20501;-87
2022/03/31 00:48:48;;;;;;;26.73;12.80;;;;;;;;;;5032902;28;20104;-86
2022/03/31 00:51:13;;;;;;;25.10;11.77;;;;;;;;;;5032869;28;20036;-87
2022/03/31 00:53:39;;;;;;;25.17;12.40;;;;;;;;;;5032851;28;20021;-87
2022/03/31 00:56:06;;;;;;;25.42;13.15;;;;;;;;;;5032881;28;20034;-88
2022/03/31 00:58:31;;;;;;;27.20;13.52;;;;;;;;;;5033968;28;20017;-88
2022/03/31 01:00:57;;;;;;;24.83;12.18;;;;;;;;;;5033329;28;20124;-87
2022/03/31 01:03:22;;;;;;;27.63;13.35;;;;;;;;;;5033449;28;20068;-87
2022/03/31 01:05:47;;;;;;;30.15;14.07;;;;;;;;;;5032600;28;20064;-87
2022/03/31 01:08:12;;;;;;;28.10;12.85;;;;;;;;;;5033616;28;20028;-87
2022/03/31 01:10:37;;;;;;;25.52;13.73;;;;;;;;;;5033261;28;20027;-87
2022/03/31 01:13:04;;;;;;;28.15;14.07;;;;;;;;;;5033800;28;20013;-87
2022/03/31 01:15:29;;;;;;;27.73;13.88;;;;;;;;;;5033656;28;20025;-87
2022/03/31 01:17:54;;;;;;;29.67;15.20;;;;;;;;;;5033415;28;20017;-87
2022/03/31 01:20:20;;;;;;;28.40;14.45;;;;;;;;;;5032820;28;20021;-87
2022/03/31 01:22:46;;;;;;;26.77;14.38;;;;;;;;;;5033351;28;20480;-87
2022/03/31 01:25:12;;;;;;;28.80;14.50;;;;;;;;;;5031802;28;20121;-87
2022/03/31 01:27:40;;;;;;;32.05;14.38;;;;;;;;;;5032208;28;20036;-87
2022/03/31 01:30:07;;;;;;;29.13;14.57;;;;;;;;;;5032485;28;20044;-87
2022/03/31 01:32:32;;;;;;;30.35;14.70;;;;;;;;;;5033328;28;20017;-87
2022/03/31 01:34:57;;;;;;;26.60;14.98;;;;;;;;;;5032966;28;20035;-87
2022/03/31 01:37:23;;;;;;;31.42;16.02;;;;;;;;;;5031596;28;20068;-87
2022/03/31 01:39:48;;;;;;;32.05;17.33;;;;;;;;;;5031689;28;20477;-87
2022/03/31 01:42:13;;;;;;;34.15;18.17;;;;;;;;;;5031922;28;20140;-87
2022/03/31 01:44:39;;;;;;;31.55;16.83;;;;;;;;;;5033086;28;20017;-87
2022/03/31 01:47:04;;;;;;;31.33;16.85;;;;;;;;;;5031853;28;20032;-87
2022/03/31 01:49:29;;;;;;;38.17;18.35;;;;;;;;;;5031334;28;20092;-87
2022/03/31 01:51:55;;;;;;;33.35;18.02;;;;;;;;;;5031775;28;20071;-87
2022/03/31 01:54:20;;;;;;;35.08;18.27;;;;;;;;;;5031454;28;20463;-87
2022/03/31 01:56:45;;;;;;;33.03;19.10;;;;;;;;;;5031410;28;20021;-87
2022/03/31 01:59:11;;;;;;;38.05;19.20;;;;;;;;;;5031381;28;20125;-87
2022/03/31 02:01:36;;;;;;;35.03;19.30;;;;;;;;;;5031300;28;20022;-86
2022/03/31 02:04:01;;;;;;;36.72;19.58;;;;;;;;;;5031315;28;20029;-87
2022/03/31 02:06:26;;;;;;;34.22;19.42;;;;;;;;;;5032450;28;20032;-86
2022/03/31 02:08:52;;;;;;;37.83;19.50;;;;;;;;;;5031292;28;20022;-86
2022/03/31 02:11:17;;;;;;;34.28;19.13;;;;;;;;;;5031755;28;20521;-87
2022/03/31 02:13:43;;;;;;;38.42;20.88;;;;;;;;;;5030196;28;20021;-87
2022/03/31 02:16:08;;;;;;;37.65;19.10;;;;;;;;;;5032171;28;20018;-86
2022/03/31 02:18:33;;;;;;;38.22;19.98;;;;;;;;;;5031227;28;20029;-87
2022/03/31 02:20:59;;;;;;;37.22;19.42;;;;;;;;;;5032203;28;20359;-87
2022/03/31 02:23:24;;;;;;;38.88;20.90;;;;;;;;;;5031386;28;20044;-87
2022/03/31 02:25:49;;;;;;;37.63;18.77;;;;;;;;;;5032260;28;20037;-87
2022/03/31 02:28:14;;;;;;;40.25;19.50;;;;;;;;;;5032378;28;20022;-86
2022/03/31 02:30:39;;;;;;;37.65;20.77;;;;;;;;;;5032345;28;20462;-87
2022/03/31 02:33:05;;;;;;;39.08;20.85;;;;;;;;;;5032727;28;20457;-87
2022/03/31 02:35:31;;;;;;;38.20;21.50;;;;;;;;;;5032092;28;20025;-86
2022/03/31 02:37:56;;;;;;;43.17;22.25;;;;;;;;;;5031023;28;20494;-86
2022/03/31 02:40:22;;;;;;;40.85;21.70;;;;;;;;;;5030642;28;20041;-86
2022/03/31 02:42:47;;;;;;;41.00;22.02;;;;;;;;;;5032204;28;20074;-86
2022/03/31 02:45:13;;;;;;;43.05;22.88;;;;;;;;;;5030965;28;20112;-87
2022/03/31 02:47:38;;;;;;;41.47;22.60;;;;;;;;;;5031190;28;20041;-87
2022/03/31 02:50:04;;;;;;;44.13;23.75;;;;;;;;;;5032114;28;20458;-86
2022/03/31 02:55:24;;;;;;;43.70;22.48;;;;;;;;;;5031132;28;20458;-87
2022/03/31 02:55:28;;;;;;;42.88;23.95;;;;;;;;;;5032340;28;20038;-86
2022/03/31 02:57:57;;;;;;;46.95;22.05;;;;;;;;;;5030710;28;20454;-87
2022/03/31 03:00:23;;;;;;;42.15;21.75;;;;;;;;;;5030108;28;20477;-87
2022/03/31 03:02:48;;;;;;;41.15;23.38;;;;;;;;;;5032135;28;20014;-86
2022/03/31 03:05:14;;;;;;;46.03;24.35;;;;;;;;;;5032247;28;20025;-86
2022/03/31 03:07:39;;;;;;;42.85;23.17;;;;;;;;;;5030926;28;20033;-86
2022/03/31 03:10:04;;;;;;;44.00;24.77;;;;;;;;;;5030519;28;20029;-86
2022/03/31 03:12:31;;;;;;;42.33;22.92;;;;;;;;;;5031128;28;20045;-86
2022/03/31 03:14:56;;;;;;;44.10;24.02;;;;;;;;;;5032463;28;20041;-86
2022/03/31 03:17:21;;;;;;;47.55;24.30;;;;;;;;;;5030935;28;20033;-86
2022/03/31 03:19:46;;;;;;;44.15;23.73;;;;;;;;;;5031990;28;20508;-86
2022/03/31 03:22:12;;;;;;;49.30;25.52;;;;;;;;;;5030706;28;20022;-86
2022/03/31 03:24:37;;;;;;;45.83;24.80;;;;;;;;;;5032835;28;20079;-86
2022/03/31 03:27:02;;;;;;;44.47;23.58;;;;;;;;;;5035860;28;20029;-86
2022/03/31 03:29:28;;;;;;;43.17;24.67;;;;;;;;;;5034950;28;20485;-86
2022/03/31 03:31:53;;;;;;;48.60;25.75;;;;;;;;;;5035569;28;20458;-86
2022/03/31 03:34:19;;;;;;;42.85;23.40;;;;;;;;;;5035159;28;20477;-86
2022/03/31 03:36:44;;;;;;;40.95;23.73;;;;;;;;;;5033972;28;20135;-86
2022/03/31 03:39:11;;;;;;;42.63;23.55;;;;;;;;;;5035250;28;20009;-86
2022/03/31 03:41:36;;;;;;;44.20;25.60;;;;;;;;;;5034182;28;20025;-86
2022/03/31 03:44:01;;;;;;;51.05;26.20;;;;;;;;;;5033695;28;20032;-86
2022/03/31 03:46:26;;;;;;;43.92;24.38;;;;;;;;;;5035584;28;20033;-86
2022/03/31 03:48:51;;;;;;;46.92;24.83;;;;;;;;;;5035185;28;20057;-86
2022/03/31 03:51:17;;;;;;;41.10;22.95;;;;;;;;;;5034055;28;20123;-86
2022/03/31 03:53:42;;;;;;;44.45;25.23;;;;;;;;;;5033979;28;20021;-86
2022/03/31 03:56:08;;;;;;;46.25;26.13;;;;;;;;;;5033978;28;20079;-86
2022/03/31 03:58:33;;;;;;;47.45;25.10;;;;;;;;;;5034901;28;20017;-86
2022/03/31 04:00:59;;;;;;;45.83;25.23;;;;;;;;;;5033611;28;20055;-86
2022/03/31 04:03:24;;;;;;;46.78;26.17;;;;;;;;;;5035116;28;20025;-86
2022/03/31 04:05:50;;;;;;;44.67;23.95;;;;;;;;;;5033685;28;20025;-86
2022/03/31 04:08:15;;;;;;;45.03;24.13;;;;;;;;;;5033295;28;20071;-86
2022/03/31 04:10:40;;;;;;;48.78;25.67;;;;;;;;;;5033009;28;20057;-86
2022/03/31 04:13:05;;;;;;;49.17;26.42;;;;;;;;;;5033099;28;20381;-86
2022/03/31 04:15:31;;;;;;;44.55;23.23;;;;;;;;;;5034398;28;20021;-85
2022/03/31 04:17:56;;;;;;;44.88;24.00;;;;;;;;;;5034216;28;20489;-86
2022/03/31 04:20:21;;;;;;;47.13;24.55;;;;;;;;;;5033877;28;20014;-85
2022/03/31 04:22:46;;;;;;;49.88;25.88;;;;;;;;;;5035692;28;20056;-84
2022/03/31 04:25:12;;;;;;;47.70;27.00;;;;;;;;;;5038134;28;20060;-85
2022/03/31 04:27:38;;;;;;;48.63;25.80;;;;;;;;;;5033967;28;20152;-85
2022/03/31 04:30:05;;;;;;;45.97;24.85;;;;;;;;;;5034093;28;20025;-85
2022/03/31 04:32:30;;;;;;;45.95;24.08;;;;;;;;;;5041904;28;20023;-84
2022/03/31 04:34:55;;;;;;;48.75;25.15;;;;;;;;;;5049415;28;20021;-85
2022/03/31 04:37:21;;;;;;;44.05;23.60;;;;;;;;;;5051987;28;20035;-84
2022/03/31 04:39:52;;;;;;;47.90;24.52;;;;;;;;;;5053158;28;20067;-85
2022/03/31 04:42:18;;;;;;;43.75;24.15;;;;;;;;;;5052867;28;20021;-85
2022/03/31 04:44:43;;;;;;;42.20;21.10;;;;;;;;;;5052726;28;20466;-85
2022/03/31 04:47:11;;;;;;;43.75;23.30;;;;;;;;;;5052046;28;20029;-85
2022/03/31 04:49:36;;;;;;;38.08;21.08;;;;;;;;;;5052750;28;20035;-86
2022/03/31 04:52:02;;;;;;;41.85;21.48;;;;;;;;;;5053358;28;20096;-86
2022/03/31 04:54:27;;;;;;;42.40;21.85;;;;;;;;;;5052654;28;20404;-86
2022/03/31 04:56:52;;;;;;;44.00;21.80;;;;;;;;;;5052837;28;20017;-85
2022/03/31 04:59:17;;;;;;;36.42;19.17;;;;;;;;;;5053674;28;20033;-86
2022/03/31 05:01:42;;;;;;;41.45;21.55;;;;;;;;;;5052515;28;20044;-85
2022/03/31 05:04:09;;;;;;;40.55;19.90;;;;;;;;;;5052529;28;20072;-86
2022/03/31 05:06:34;;;;;;;38.65;21.42;;;;;;;;;;5053342;28;20047;-86
2022/03/31 05:08:59;;;;;;;40.88;20.92;;;;;;;;;;5052198;28;20013;-85
2022/03/31 05:11:25;;;;;;;35.80;20.13;;;;;;;;;;5052291;28;20017;-86
2022/03/31 05:13:50;;;;;;;41.03;19.92;;;;;;;;;;5030828;28;20059;-86
2022/03/31 05:16:15;;;;;;;39.03;19.42;;;;;;;;;;5045327;28;20116;-86
2022/03/31 05:18:40;;;;;;;39.67;20.27;;;;;;;;;;5036928;28;20028;-86
2022/03/31 05:21:06;;;;;;;41.97;21.65;;;;;;;;;;5025185;28;20025;-86
2022/03/31 05:23:31;;;;;;;40.15;19.95;;;;;;;;;;5039385;28;20386;-86
2022/03/31 05:25:56;;;;;;;40.35;20.80;;;;;;;;;;5026735;28;20017;-86
2022/03/31 05:28:22;;;;;;;39.17;21.52;;;;;;;;;;5045054;28;20095;-85
2022/03/31 05:30:47;;;;;;;39.25;19.45;;;;;;;;;;5044707;28;20393;-86
2022/03/31 05:33:12;;;;;;;40.47;20.88;;;;;;;;;;5039795;28;20039;-86
2022/03/31 05:35:37;;;;;;;41.75;20.30;;;;;;;;;;5049372;22;20041;-83
2022/03/31 05:38:03;;;;;;;39.80;20.83;;;;;;;;;;5012219;28;20398;-84
2022/03/31 05:40:29;;;;;;;38.55;19.63;;;;;;;;;;5013374;28;20018;-83
2022/03/31 05:42:57;;;;;;;39.40;21.52;;;;;;;;;;5004464;28;20041;-84
2022/03/31 05:45:22;;;;;;;43.15;20.05;;;;;;;;;;5014118;28;20052;-84
2022/03/31 05:47:47;;;;;;;39.90;21.35;;;;;;;;;;5021078;28;20529;-84
2022/03/31 05:50:13;;;;;;;40.90;21.67;;;;;;;;;;5012265;28;20041;-84
2022/03/31 05:52:40;;;;;;;45.17;22.20;;;;;;;;;;5014565;28;20478;-84
2022/03/31 05:55:06;;;;;;;40.83;20.48;;;;;;;;;;5010465;28;20026;-84
2022/03/31 05:57:33;;;;;;;42.95;22.00;;;;;;;;;;5011339;28;20014;-84
2022/03/31 05:59:58;;;;;;;42.92;21.08;;;;;;;;;;5010705;28;20480;-83
2022/03/31 06:02:23;;;;;;;43.20;21.23;;;;;;;;;;5012790;28;20052;-84
2022/03/31 06:04:48;;;;;;;37.25;20.50;;;;;;;;;;5012547;28;20075;-83
2022/03/31 06:07:13;;;;;;;39.58;20.17;;;;;;;;;;5012192;28;20482;-83
2022/03/31 06:09:39;;;;;;;38.65;19.05;;;;;;;;;;5011305;28;20402;-82
2022/03/31 06:12:04;;;;;;;43.55;20.80;;;;;;;;;;5011185;28;20386;-82
2022/03/31 06:14:30;;;;;;;43.50;21.05;;;;;;;;;;5010959;28;20067;-82
2022/03/31 06:16:55;;;;;;;41.88;20.88;;;;;;;;;;5012795;28;20018;-83
2022/03/31 06:19:20;;;;;;;39.55;20.45;;;;;;;;;;5012325;28;20025;-83
2022/03/31 06:21:45;;;;;;;38.20;20.20;;;;;;;;;;5012397;28;20026;-83
2022/03/31 06:24:10;;;;;;;40.08;20.52;;;;;;;;;;5011253;28;20029;-82
2022/03/31 06:26:36;;;;;;;38.42;21.40;;;;;;;;;;5010999;28;20034;-84
2022/03/31 06:29:01;;;;;;;37.38;18.65;;;;;;;;;;5012119;28;20356;-83
2022/03/31 06:31:27;;;;;;;44.70;21.73;;;;;;;;;;5012395;28;20022;-84
2022/03/31 06:33:52;;;;;;;38.00;20.35;;;;;;;;;;5011294;28;20037;-84
2022/03/31 06:36:17;;;;;;;44.15;19.85;;;;;;;;;;5012106;28;20044;-82
2022/03/31 06:38:43;;;;;;;38.47;20.30;;;;;;;;;;5010707;28;20499;-83
2022/03/31 06:41:14;;;;;;;36.45;18.65;;;;;;;;;;5010666;28;20033;-82
2022/03/31 06:43:41;;;;;;;34.40;18.38;;;;;;;;;;4974500;28;20038;-83
2022/03/31 06:46:07;;;;;;;34.00;18.80;;;;;;;;;;5005574;28;20398;-84
2022/03/31 06:48:32;;;;;;;32.17;18.85;;;;;;;;;;5006876;28;20077;-83
2022/03/31 06:50:58;;;;;;;32.70;17.67;;;;;;;;;;4990820;28;20018;-83
2022/03/31 06:53:23;;;;;;;31.98;17.95;;;;;;;;;;5005360;28;20018;-84
2022/03/31 06:55:49;;;;;;;35.33;19.60;;;;;;;;;;5010900;28;20113;-83
2022/03/31 06:58:14;;;;;;;28.08;16.30;;;;;;;;;;5009387;28;20467;-84
2022/03/31 07:00:40;;;;;;;32.40;16.27;;;;;;;;;;5013049;28;20368;-84
2022/03/31 07:03:05;;;;;;;30.58;17.70;;;;;;;;;;5013361;28;20021;-84
2022/03/31 07:05:30;;;;;;;29.50;15.98;;;;;;;;;;5012421;28;20124;-86
2022/03/31 07:07:55;;;;;;;27.50;15.10;;;;;;;;;;5013805;28;20489;-83
2022/03/31 07:10:21;;;;;;;24.80;14.15;;;;;;;;;;5002453;28;20390;-84
2022/03/31 07:12:47;;;;;;;26.90;13.63;;;;;;;;;;4994099;28;20022;-82
2022/03/31 07:15:12;;;;;;;24.88;12.77;;;;;;;;;;5010621;28;20033;-83
2022/03/31 07:17:38;;;;;;;31.27;13.90;;;;;;;;;;5014750;28;20105;-83
2022/03/31 07:20:04;;;;;;;23.27;12.73;;;;;;;;;;4992305;28;20045;-83
2022/03/31 07:22:29;;;;;;;23.53;13.67;;;;;;;;;;4996581;28;20064;-84
2022/03/31 07:24:54;;;;;;;22.50;12.83;;;;;;;;;;5009008;28;20022;-84
2022/03/31 07:27:20;;;;;;;25.53;13.37;;;;;;;;;;4993085;28;20558;-84
2022/03/31 07:29:45;;;;;;;26.20;15.00;;;;;;;;;;4994786;28;20069;-83
2022/03/31 07:32:10;;;;;;;27.10;14.48;;;;;;;;;;5002713;28;20022;-86
2022/03/31 07:34:36;;;;;;;25.20;14.10;;;;;;;;;;5012103;28;20014;-83
2022/03/31 07:37:01;;;;;;;25.90;12.90;;;;;;;;;;5013516;28;20075;-84
2022/03/31 07:39:26;;;;;;;24.57;11.77;;;;;;;;;;5004592;28;20455;-84
2022/03/31 07:41:52;;;;;;;24.97;10.90;;;;;;;;;;4994157;28;20041;-84
2022/03/31 07:44:17;;;;;;;22.43;10.07;;;;;;;;;;5009322;28;20513;-83
2022/03/31 07:46:43;;;;;;;22.43;10.17;;;;;;;;;;5008943;28;20034;-89
2022/03/31 07:49:08;;;;;;;22.33;11.00;;;;;;;;;;4992985;28;20014;-83
2022/03/31 07:51:33;;;;;;;22.30;11.23;;;;;;;;;;4993873;28;20019;-84
2022/03/31 07:53:59;;;;;;;21.10;10.63;;;;;;;;;;4992713;28;20038;-83
2022/03/31 07:56:24;;;;;;;22.17;11.73;;;;;;;;;;5009491;28;20028;-84
2022/03/31 07:58:49;;;;;;;25.53;14.10;;;;;;;;;;4992064;28;20018;-84
2022/03/31 08:01:14;;;;;;;23.60;12.23;;;;;;;;;;4992134;28;20101;-83
2022/03/31 08:03:39;;;;;;;20.90;9.87;;;;;;;;;;5007967;28;20403;-84
2022/03/31 08:06:06;;;;;;;20.23;8.77;;;;;;;;;;4992315;28;20599;-84
2022/03/31 08:08:31;;;;;;;17.07;8.53;;;;;;;;;;5004991;28;20027;-84
2022/03/31 08:10:56;;;;;;;13.40;7.10;;;;;;;;;;4991912;28;20364;-83
2022/03/31 08:13:26;;;;;;;16.30;7.53;;;;;;;;;;4992573;28;20489;-83
2022/03/31 08:15:53;;;;;;;13.17;6.20;;;;;;;;;;5008932;28;20459;-84
2022/03/31 08:18:19;;;;;;;11.80;5.93;;;;;;;;;;4993514;28;20026;-83
2022/03/31 08:20:44;;;;;;;16.77;6.37;;;;;;;;;;5008585;28;20041;-83
2022/03/31 08:23:10;;;;;;;12.57;6.03;;;;;;;;;;5007853;28;20026;-83
2022/03/31 08:25:35;;;;;;;17.00;7.07;;;;;;;;;;5010701;28;20455;-84
2022/03/31 08:28:00;;;;;;;17.40;9.40;;;;;;;;;;5012724;28;20029;-84
2022/03/31 08:30:26;;;;;;;30.53;19.57;;;;;;;;;;5027293;28;20467;-84
2022/03/31 08:32:51;;;;;;;22.23;14.27;;;;;;;;;;5027251;28;20010;-83
2022/03/31 08:35:17;;;;;;;16.43;9.47;;;;;;;;;;5009716;28;20022;-83
2022/03/31 08:37:42;;;;;;;15.73;8.07;;;;;;;;;;5011074;28;20030;-83
2022/03/31 08:40:09;;;;;;;12.57;7.63;;;;;;;;;;4991663;28;20041;-83
2022/03/31 08:42:34;;;;;;;9.20;5.03;;;;;;;;;;4996065;28;20475;-84
2022/03/31 08:45:00;;;;;;;7.63;4.50;;;;;;;;;;5013197;28;20014;-86
2022/03/31 08:47:26;;;;;;;7.67;3.80;;;;;;;;;;5010272;28;20018;-84
2022/03/31 08:49:53;;;;;;;8.57;4.63;;;;;;;;;;5010928;28;20010;-84
2022/03/31 08:52:18;;;;;;;12.63;7.67;;;;;;;;;;5010512;28;20117;-84
2022/03/31 08:54:43;;;;;;;12.63;6.93;;;;;;;;;;5011163;28;20108;-84
2022/03/31 08:57:09;;;;;;;12.17;6.83;;;;;;;;;;5011285;28;20022;-84
2022/03/31 08:59:34;;;;;;;11.10;5.93;;;;;;;;;;5010310;28;20136;-84
2022/03/31 09:01:59;;;;;;;11.17;5.93;;;;;;;;;;5010549;28;20026;-83
2022/03/31 09:04:25;;;;;;;14.80;7.70;;;;;;;;;;5012019;28;20469;-84
2022/03/31 09:07:01;;;;;;;14.87;8.00;;;;;;;;;;5008897;28;20029;-81
2022/03/31 09:09:27;;;;;;;15.03;7.37;;;;;;;;;;5009019;28;20104;-81
2022/03/31 09:11:53;;;;;;;15.37;7.20;;;;;;;;;;4990590;28;20109;-81
2022/03/31 09:14:26;;;;;;;12.20;6.40;;;;;;;;;;4998637;28;20041;-81
2022/03/31 09:16:52;;;;;;;14.47;6.40;;;;;;;;;;5011991;28;20018;-84
2022/03/31 09:19:17;;;;;;;17.47;8.17;;;;;;;;;;5011832;28;20026;-84
2022/03/31 09:21:51;;;;;;;16.13;8.20;;;;;;;;;;5007261;28;20045;-84
2022/03/31 09:24:18;;;;;;;19.53;9.10;;;;;;;;;;4991374;28;20026;-83
2022/03/31 09:26:47;;;;;;;12.33;6.40;;;;;;;;;;5007567;28;20030;-84
2022/03/31 09:29:13;;;;;;;12.57;5.97;;;;;;;;;;5007459;28;20032;-84
2022/03/31 09:31:38;;;;;;;10.20;5.27;;;;;;;;;;4990655;28;20018;-84
2022/03/31 09:34:03;;;;;;;13.07;5.63;;;;;;;;;;4990182;28;20018;-84
2022/03/31 09:36:29;;;;;;;11.13;5.67;;;;;;;;;;4991853;28;20386;-84
2022/03/31 09:38:58;;;;;;;10.07;5.07;;;;;;;;;;5007174;28;20030;-85
2022/03/31 09:41:23;;;;;;;11.27;6.10;;;;;;;;;;4990404;28;20483;-84
2022/03/31 09:43:49;;;;;;;13.73;6.50;;;;;;;;;;4992378;28;20076;-84
2022/03/31 09:46:18;;;;;;;11.47;5.87;;;;;;;;;;4990635;28;20034;-84
2022/03/31 09:48:43;;;;;;;15.47;7.27;;;;;;;;;;4992008;28;20486;-84
2022/03/31 09:51:09;;;;;;;12.90;6.90;;;;;;;;;;4990400;28;20054;-84
2022/03/31 09:53:34;;;;;;;14.50;6.93;;;;;;;;;;4991509;28;20514;-84
2022/03/31 09:56:00;;;;;;;13.07;7.13;;;;;;;;;;4990252;28;20041;-83
2022/03/31 09:58:26;;;;;;;14.27;7.43;;;;;;;;;;5000432;28;20019;-83
2022/03/31 10:00:51;;;;;;;16.83;7.40;;;;;;;;;;4990238;28;20464;-85
2022/03/31 10:03:17;;;;;;;15.00;6.77;;;;;;;;;;4991867;28;20031;-84
2022/03/31 10:05:45;;;;;;;15.13;7.27;;;;;;;;;;4988533;28;20037;-84
2022/03/31 10:08:11;;;;;;;16.10;6.77;;;;;;;;;;5006484;28;20116;-85
2022/03/31 10:10:37;;;;;;;13.20;7.23;;;;;;;;;;4989284;28;20551;-85
2022/03/31 10:13:11;;;;;;;17.40;7.47;;;;;;;;;;4999088;28;20108;-84
2022/03/31 10:15:37;;;;;;;15.43;7.70;;;;;;;;;;4990216;28;20518;-85
2022/03/31 10:18:02;;;;;;;12.87;6.77;;;;;;;;;;4989469;28;20034;-85
2022/03/31 10:20:28;;;;;;;16.53;7.20;;;;;;;;;;4989328;28;20018;-84
2022/03/31 10:25:41;;;;;;;15.27;7.17;;;;;;;;;;4990124;28;20398;-84
2022/03/31 10:28:07;;;;;;;16.10;7.60;;;;;;;;;;4991214;28;20098;-83
2022/03/31 10:30:32;;;;;;;14.83;7.37;;;;;;;;;;4989520;28;20438;-84
2022/03/31 10:32:58;;;;;;;15.40;6.80;;;;;;;;;;4990333;28;20019;-84
2022/03/31 10:35:25;;;;;;;14.83;6.90;;;;;;;;;;4989544;28;20030;-84
2022/03/31 10:37:51;;;;;;;14.93;6.53;;;;;;;;;;4989133;28;20023;-85
2022/03/31 10:40:27;;;;;;;15.97;7.30;;;;;;;;;;4989786;28;20383;-84
2022/03/31 10:42:55;;;;;;;16.33;7.00;;;;;;;;;;4990675;28;20022;-84
2022/03/31 10:45:20;;;;;;;16.60;7.13;;;;;;;;;;4991874;28;20026;-85
2022/03/31 10:47:45;;;;;;;14.10;6.57;;;;;;;;;;4992703;28;20118;-83
2022/03/31 10:50:25;;;;;;;15.80;6.60;;;;;;;;;;5006832;28;20045;-82
2022/03/31 10:53:00;;;;;;;14.07;7.03;;;;;;;;;;5009095;28;20032;-82
2022/03/31 10:55:33;;;;;;;12.73;5.80;;;;;;;;;;5010970;28;20010;-82
2022/03/31 10:57:58;;;;;;;17.52;7.15;;;;;;;;;;4999911;28;20022;-82
2022/03/31 11:00:24;;;;;;;14.47;6.70;;;;;;;;;;4992590;28;20022;-82
2022/03/31 11:02:52;;;;;;;12.77;6.13;;;;;;;;;;5007450;28;20605;-81
2022/03/31 11:05:21;;;;;;;14.00;6.17;;;;;;;;;;5011910;28;20022;-83
2022/03/31 11:07:46;;;;;;;10.83;6.30;;;;;;;;;;5011597;28;20032;-82
2022/03/31 11:10:12;;;;;;;12.93;5.97;;;;;;;;;;5010641;28;20018;-82
2022/03/31 11:12:38;;;;;;;13.05;6.28;;;;;;;;;;5011416;28;20018;-83
2022/03/31 11:15:09;;;;;;;14.63;6.15;;;;;;;;;;5010439;28;20494;-82
2022/03/31 11:17:36;;;;;;;11.55;5.72;;;;;;;;;;5010904;28;20101;-82
2022/03/31 11:20:03;;;;;;;9.83;5.70;;;;;;;;;;5011797;28;20014;-82
2022/03/31 11:22:29;;;;;;;13.00;5.93;;;;;;;;;;5009957;28;20088;-81
2022/03/31 11:25:06;;;;;;;13.00;5.93;;;;;;;;;;5010223;28;20021;-82
2022/03/31 11:27:36;;;;;;;11.93;6.15;;;;;;;;;;5010215;28;20026;-81
2022/03/31 11:30:01;;;;;;;12.07;6.40;;;;;;;;;;5010784;28;20100;-82
2022/03/31 11:32:31;;;;;;;12.23;6.10;;;;;;;;;;5010275;28;20459;-81
2022/03/31 11:34:56;;;;;;;12.20;5.57;;;;;;;;;;5010432;28;20022;-81
2022/03/31 11:37:21;;;;;;;12.53;6.13;;;;;;;;;;5010158;28;20029;-82
2022/03/31 11:39:46;;;;;;;12.23;6.73;;;;;;;;;;5012068;28;20423;-81
2022/03/31 11:42:12;;;;;;;14.68;6.88;;;;;;;;;;5011449;28;20040;-82
2022/03/31 11:44:41;;;;;;;13.67;6.73;;;;;;;;;;5011859;28;20026;-81
2022/03/31 11:47:06;;;;;;;15.20;7.03;;;;;;;;;;5013848;28;20041;-81
2022/03/31 11:49:31;;;;;;;14.03;7.00;;;;;;;;;;4973134;28;20037;-81
2022/03/31 11:51:58;;;;;;;13.18;7.13;;;;;;;;;;4993744;28;20730;-82
2022/03/31 11:54:24;;;;;;;16.92;8.02;;;;;;;;;;4993038;28;20022;-82
2022/03/31 11:57:09;;;;;;;31.95;14.18;;;;;;;;;;4993325;28;20049;-81
2022/03/31 11:59:35;;;;;;;22.17;8.90;;;;;;;;;;4997287;28;20022;-82
2022/03/31 12:02:00;;;;;;;40.37;15.53;;;;;;;;;;5011141;28;20555;-82
2022/03/31 12:04:28;;;;;;;15.63;7.07;;;;;;;;;;5013101;28;20025;-83
2022/03/31 12:06:54;;;;;;;14.25;6.60;;;;;;;;;;5013451;28;20103;-81
2022/03/31 12:09:20;;;;;;;15.53;7.37;;;;;;;;;;5009183;28;20037;-82
2022/03/31 12:11:48;;;;;;;12.00;5.80;;;;;;;;;;4993468;28;20097;-82
2022/03/31 12:14:14;;;;;;;11.20;6.00;;;;;;;;;;4993757;28;20146;-81
2022/03/31 12:16:43;;;;;;;9.67;5.10;;;;;;;;;;4991668;28;20117;-81
2022/03/31 12:19:08;;;;;;;11.13;5.83;;;;;;;;;;4991364;28;20033;-82
2022/03/31 12:21:43;;;;;;;9.70;5.15;;;;;;;;;;4992867;28;20010;-82
2022/03/31 12:24:10;;;;;;;9.03;4.80;;;;;;;;;;4991386;28;20015;-81
2022/03/31 12:26:35;;;;;;;10.27;5.60;;;;;;;;;;4991059;28;20058;-82
2022/03/31 12:29:01;;;;;;;10.77;5.78;;;;;;;;;;4992746;28;20482;-82
2022/03/31 12:31:29;;;;;;;11.48;6.32;;;;;;;;;;4991497;28;20028;-82
2022/03/31 12:33:56;;;;;;;11.27;6.13;;;;;;;;;;4992304;28;20014;-82
2022/03/31 12:36:26;;;;;;;13.02;6.05;;;;;;;;;;5007368;28;20038;-81
2022/03/31 12:38:52;;;;;;;15.63;6.43;;;;;;;;;;4992893;28;20093;-82
2022/03/31 12:41:34;;;;;;;14.48;7.25;;;;;;;;;;5007479;28;20576;-81
2022/03/31 12:44:07;;;;;;;11.55;6.20;;;;;;;;;;4992672;28;20031;-81
2022/03/31 12:46:40;;;;;;;12.98;6.80;;;;;;;;;;4992604;28;20118;-82
2022/03/31 12:49:10;;;;;;;11.17;6.20;;;;;;;;;;4990794;28;20088;-81
2022/03/31 12:51:41;;;;;;;13.03;6.63;;;;;;;;;;4991064;28;20133;-81
2022/03/31 12:54:17;;;;;;;12.93;6.70;;;;;;;;;;4990495;28;20120;-82
2022/03/31 12:56:45;;;;;;;11.95;7.30;;;;;;;;;;4992086;28;20480;-82
2022/03/31 12:59:20;;;;;;;10.50;5.93;;;;;;;;;;4992221;28;20029;-82
2022/03/31 13:01:55;;;;;;;12.30;7.65;;;;;;;;;;4992028;28;20030;-82
2022/03/31 13:04:21;;;;;;;11.05;6.60;;;;;;;;;;4990382;28;20026;-82
2022/03/31 13:06:46;;;;;;;14.23;6.68;;;;;;;;;;5006478;28;20064;-81
2022/03/31 13:09:11;;;;;;;12.05;6.28;;;;;;;;;;4990762;28;20371;-81
2022/03/31 13:11:36;;;;;;;9.38;5.93;;;;;;;;;;4991638;28;20044;-82
2022/03/31 13:14:01;;;;;;;10.40;6.00;;;;;;;;;;4992085;28;20010;-82
2022/03/31 13:16:28;;;;;;;11.85;5.57;;;;;;;;;;4992204;28;20446;-82
2022/03/31 13:18:53;;;;;;;11.20;6.07;;;;;;;;;;4992562;28;20026;-82
2022/03/31 13:21:19;;;;;;;9.43;5.25;;;;;;;;;;4990281;28;20438;-81
2022/03/31 13:23:44;;;;;;;11.43;5.45;;;;;;;;;;4991779;28;20479;-82
2022/03/31 13:26:10;;;;;;;9.52;4.90;;;;;;;;;;4992072;28;20027;-81
2022/03/31 13:28:36;;;;;;;9.15;4.95;;;;;;;;;;4991709;28;20028;-81
2022/03/31 13:31:01;;;;;;;7.93;4.30;;;;;;;;;;4990526;28;20061;-81
2022/03/31 13:33:26;;;;;;;6.82;3.92;;;;;;;;;;4991738;28;20062;-81
2022/03/31 13:35:52;;;;;;;5.38;3.20;;;;;;;;;;5006629;28;20554;-82
2022/03/31 13:38:17;;;;;;;8.48;4.28;;;;;;;;;;4992158;28;20033;-81
2022/03/31 13:40:43;;;;;;;4.97;3.40;;;;;;;;;;4991073;28;20041;-82
2022/03/31 13:43:09;;;;;;;5.80;3.70;;;;;;;;;;5006115;28;20018;-81
2022/03/31 13:45:34;;;;;;;5.22;3.47;;;;;;;;;;4990436;28;20502;-82
2022/03/31 13:48:00;;;;;;;4.15;2.97;;;;;;;;;;4991502;28;20038;-82
2022/03/31 13:50:26;;;;;;;4.78;3.00;;;;;;;;;;4991321;28;20026;-82
2022/03/31 13:55:39;;;;;;;5.57;3.08;;;;;;;;;;4980799;28;20065;-81
2022/03/31 14:01:11;;;;;;;6.45;3.30;;;;;;;;;;4990786;28;20084;-83
2022/03/31 14:03:42;;;;;;;5.90;3.80;;;;;;;;;;4989706;28;20500;-83
2022/03/31 14:06:07;;;;;;;7.72;3.72;;;;;;;;;;4989398;28;20073;-83
2022/03/31 14:08:34;;;;;;;6.80;4.13;;;;;;;;;;4991529;28;20015;-83
2022/03/31 14:11:00;;;;;;;7.10;4.18;;;;;;;;;;4990535;28;20519;-83
2022/03/31 14:13:25;;;;;;;7.28;4.07;;;;;;;;;;4990417;28;20022;-83
2022/03/31 14:15:50;;;;;;;6.28;4.30;;;;;;;;;;5006184;28;20033;-83
2022/03/31 14:18:15;;;;;;;10.18;4.30;;;;;;;;;;5008545;28;20037;-83
2022/03/31 14:20:40;;;;;;;8.02;4.13;;;;;;;;;;5002091;28;20014;-83
2022/03/31 14:23:06;;;;;;;7.53;3.80;;;;;;;;;;5010109;28;20018;-84
2022/03/31 14:25:31;;;;;;;4.40;3.55;;;;;;;;;;4998939;28;20390;-83
2022/03/31 14:27:57;;;;;;;6.63;4.13;;;;;;;;;;4989282;28;20033;-83